Home > Products > Valid Products > TAF

000
FTUS43 KLMK 270824 AAA
TAFBWG
TAF AMD
KBWG 270824Z 2708/2806 18002KT 4SM BR SCT120 BKN250
      TEMPO 2708/2712 2SM BR
     FM271400 20012KT P6SM SCT060
     FM280000 17006KT P6SM SCT120 BKN250=



000
FTUS43 KLMK 261749
TAFSDF
TAF
KSDF 261749Z 2618/2724 20012KT P6SM BKN025
     FM261840 20012KT 5SM -SHRA VCTS BKN030CB BKN060
      TEMPO 2619/2621 VRB15G30KT 1SM TSRA BKN015CB
     FM262200 18005KT 6SM HZ SCT050 BKN100
     FM271600 19010KT P6SM SCT050=



000
FTUS43 KLMK 261749
TAFBWG
TAF
KBWG 261749Z 2618/2718 22012KT P6SM VCTS BKN025CB
     FM262000 21010KT 6SM -SHRA BKN025 OVC080
      TEMPO 2620/2622 VRB15G30KT 1SM TSRA BKN015CB
     FM262230 18005KT 6SM HZ SCT050 BKN100
     FM270800 VRB03KT 4SM BR SCT250
     FM271600 19010KT P6SM SCT050=



000
FTUS43 KLMK 261749
TAFLEX
TAF
KLEX 261749Z 2618/2718 18012KT P6SM BKN040
     FM262030 21010KT 6SM -SHRA BKN025 OVC080
     FM262330 18005KT 6SM HZ SCT050 BKN100
     FM271000 VRB03KT 4SM BR SCT250
     FM271400 19010KT P6SM SCT050=



000
FTUS43 KLMK 261201 AAA
TAFLEX
TAF AMD
KLEX 261201Z 2612/2712 20011KT 2SM RA BKN045
     FM261330 18012KT P6SM BKN045
     FM262000 21013KT P6SM SCT050
     FM270300 17005KT P6SM SCT200
      TEMPO 2710/2712 5SM BR=



000
FTUS43 KLMK 261127
TAFLEX
TAF
KLEX 261127Z 2612/2712 20011KT P6SM BKN045
     FM262000 21013KT P6SM SCT050
     FM270300 17005KT P6SM SCT200
      TEMPO 2710/2712 5SM BR=



000
FTUS43 KLMK 261127
TAFBWG
TAF
KBWG 261127Z 2612/2712 00000KT P6SM BKN060
     FM261400 21010KT P6SM BKN050
     FM261800 22012KT P6SM SCT050
     FM270000 17004KT P6SM SCT250=



000
FTUS43 KLMK 261127
TAFSDF
TAF
KSDF 261127Z 2612/2718 17008KT P6SM VCSH BKN045
     FM261600 20012KT P6SM BKN050
     FM262100 20012KT P6SM VCTS SCT050CB
     FM270200 17005KT P6SM SCT150
     FM271600 19010KT P6SM SCT050=



000
FTUS43 KLMK 260820 AAA
TAFBWG
TAF AMD
KBWG 260820Z 2608/2706 00000KT P6SM BKN060
     FM260900 00000KT 4SM BR BKN060
     FM261400 21010KT P6SM BKN050
     FM261800 22012KT P6SM SCT050
     FM270000 17004KT P6SM SCT250=



000
FTUS43 KLMK 260815 AAA
TAFLEX
TAF AMD
KLEX 260815Z 2608/2706 20005KT P6SM SCT060 BKN100
      TEMPO 2608/2610 4SM SHRA BKN060
     FM261400 19011KT P6SM BKN050
     FM262000 21013KT P6SM SCT050
     FM270300 16004KT P6SM SCT200=



000
FTUS43 KLMK 260527
TAFBWG
TAF
KBWG 260527Z 2606/2706 20003KT P6SM BKN150
     FM260800 20002KT 4SM BR SCT060
      TEMPO 2610/2612 1SM BR
     FM261400 21010KT P6SM BKN050
     FM261800 22012KT P6SM SCT050
     FM270000 17004KT P6SM SCT250=



000
FTUS43 KLMK 260527
TAFSDF
TAF
KSDF 260527Z 2606/2712 17004KT P6SM SCT060 BKN150
     FM261200 19010KT P6SM BKN050
     FM262000 21012KT P6SM VCTS SCT050CB
     FM270200 16005KT P6SM SCT150=



000
FTUS43 KLMK 260527
TAFLEX
TAF
KLEX 260527Z 2606/2706 18004KT P6SM SCT060 BKN150
     FM261400 19011KT P6SM BKN050
     FM262000 21013KT P6SM SCT050
     FM270300 16004KT P6SM SCT200=



    US Dept of Commerce
    National Oceanic and Atmospheric Administration
    National Weather Service
    1325 East West Highway
    Silver Spring, MD 20910
    Page Author: NWS Internet Services Team
Disclaimer
Information Quality
Credits
Glossary
Privacy Policy
Freedom of Information Act (FOIA)
About Us
Career Opportunities